createdAt,value
2022-12-17T00:00:37.484Z,8.18
2022-12-17T00:03:24.729Z,7.93
2022-12-17T00:06:11.299Z,9.27
2022-12-17T00:08:57.009Z,10.93
2022-12-17T00:11:42.995Z,11.90
2022-12-17T00:14:28.343Z,11.18
2022-12-17T00:17:13.552Z,8.02
2022-12-17T00:19:58.834Z,9.57
2022-12-17T00:22:43.999Z,8.95
2022-12-17T00:25:29.825Z,8.38
2022-12-17T00:28:14.987Z,9.52
2022-12-17T00:31:00.368Z,8.18
2022-12-17T00:33:45.687Z,8.90
2022-12-17T00:36:31.060Z,9.45
2022-12-17T00:39:16.385Z,11.73
2022-12-17T00:42:01.591Z,8.95
2022-12-17T00:44:46.899Z,9.43
2022-12-17T00:47:32.137Z,8.38
2022-12-17T00:50:17.395Z,11.40
2022-12-17T00:53:03.308Z,8.38
2022-12-17T00:55:49.040Z,8.57
2022-12-17T00:58:34.296Z,8.63
2022-12-17T01:01:20.238Z,9.45
2022-12-17T01:04:05.805Z,11.98
2022-12-17T01:06:52.054Z,14.75
2022-12-17T01:09:39.232Z,16.23
2022-12-17T01:12:26.252Z,17.98
2022-12-17T01:15:13.133Z,12.20
2022-12-17T01:17:58.295Z,15.73
2022-12-17T01:20:44.302Z,12.95
2022-12-17T01:23:30.220Z,11.80
2022-12-17T01:26:16.394Z,13.77
2022-12-17T01:29:02.406Z,9.38
2022-12-17T01:31:47.860Z,7.68
2022-12-17T01:34:37.871Z,8.50
2022-12-17T01:37:23.223Z,8.32
2022-12-17T01:40:08.459Z,6.70
2022-12-17T01:43:02.947Z,7.50
2022-12-17T01:46:00.149Z,7.40
2022-12-17T01:48:55.181Z,7.40
2022-12-17T01:51:41.737Z,8.95
2022-12-17T01:54:28.428Z,7.28
2022-12-17T01:57:14.132Z,7.50
2022-12-17T02:00:22.799Z,7.45
2022-12-17T02:03:08.773Z,9.70
2022-12-17T02:06:14.289Z,7.50
2022-12-17T02:09:13.480Z,8.52
2022-12-17T02:12:21.579Z,9.95
2022-12-17T02:15:37.675Z,7.63
2022-12-17T02:18:31.466Z,7.68
2022-12-17T02:21:19.448Z,6.57
2022-12-17T02:24:30.784Z,8.95
2022-12-17T02:30:12.317Z,7.30
2022-12-17T02:33:02.440Z,5.93
2022-12-17T02:35:54.219Z,8.25
2022-12-17T02:38:45.780Z,7.40
2022-12-17T02:41:47.370Z,7.93
2022-12-17T02:44:38.002Z,6.18
2022-12-17T02:47:28.269Z,6.00
2022-12-17T02:50:14.775Z,5.70
2022-12-17T02:53:05.818Z,5.15
2022-12-17T02:55:53.279Z,5.03
2022-12-17T02:58:39.328Z,6.63
2022-12-17T03:01:25.352Z,6.03
2022-12-17T03:04:10.683Z,5.97
2022-12-17T03:06:56.022Z,7.72
2022-12-17T03:09:41.813Z,6.47
2022-12-17T03:12:28.223Z,7.68
2022-12-17T03:15:13.462Z,7.18
2022-12-17T03:17:59.298Z,9.35
2022-12-17T03:20:45.080Z,6.68
2022-12-17T03:23:30.891Z,8.25
2022-12-17T03:26:21.655Z,10.48
2022-12-17T03:29:07.583Z,8.25
2022-12-17T03:31:53.275Z,7.47
2022-12-17T03:34:38.508Z,7.60
2022-12-17T03:37:25.627Z,8.55
2022-12-17T03:40:11.083Z,6.75
2022-12-17T03:42:56.417Z,8.20
2022-12-17T03:45:42.319Z,7.10
2022-12-17T03:48:31.043Z,8.05
2022-12-17T03:51:17.683Z,7.40
2022-12-17T03:54:04.047Z,7.10
2022-12-17T03:56:50.301Z,6.72
2022-12-17T03:59:35.527Z,7.80
2022-12-17T04:02:21.052Z,6.22
2022-12-17T04:05:06.780Z,6.22
2022-12-17T04:07:52.092Z,4.57
2022-12-17T04:10:37.815Z,4.90
2022-12-17T04:13:23.688Z,6.55
2022-12-17T04:16:09.028Z,6.05
2022-12-17T04:18:54.476Z,5.95
2022-12-17T04:21:39.923Z,4.75
2022-12-17T04:24:25.789Z,7.35
2022-12-17T04:27:11.088Z,7.57
2022-12-17T04:29:56.421Z,6.70
2022-12-17T04:32:41.679Z,6.63
2022-12-17T04:35:26.967Z,7.38
2022-12-17T04:38:12.789Z,8.32
2022-12-17T04:40:58.318Z,8.07
2022-12-17T04:43:43.473Z,6.28
2022-12-17T04:46:28.915Z,5.80
2022-12-17T04:49:15.994Z,7.88
2022-12-17T04:52:01.808Z,6.90
2022-12-17T04:54:47.044Z,6.50
2022-12-17T04:57:32.791Z,7.53
2022-12-17T05:00:18.501Z,7.97
2022-12-17T05:03:03.857Z,6.97
2022-12-17T05:05:49.241Z,9.23
2022-12-17T05:08:39.625Z,7.20
2022-12-17T05:11:27.181Z,6.65
2022-12-17T05:14:12.480Z,10.35
2022-12-17T05:16:57.799Z,8.15
2022-12-17T05:19:43.140Z,10.13
2022-12-17T05:22:28.404Z,8.23
2022-12-17T05:25:13.801Z,8.57
2022-12-17T05:27:59.034Z,9.50
2022-12-17T05:30:44.310Z,6.30
2022-12-17T05:33:29.580Z,8.15
2022-12-17T05:36:21.984Z,7.60
2022-12-17T05:39:12.913Z,10.00
2022-12-17T05:41:58.263Z,16.73
2022-12-17T05:44:46.661Z,10.38
2022-12-17T05:47:31.878Z,7.32
2022-12-17T05:50:17.199Z,8.38
2022-12-17T05:53:02.418Z,10.30
2022-12-17T05:55:47.673Z,8.35
2022-12-17T05:58:33.010Z,9.15
2022-12-17T06:01:22.795Z,11.77
2022-12-17T06:04:08.667Z,12.15
2022-12-17T06:06:54.547Z,9.90
2022-12-17T06:09:39.694Z,7.03
2022-12-17T06:12:25.635Z,9.75
2022-12-17T06:15:11.029Z,9.45
2022-12-17T06:17:56.128Z,10.82
2022-12-17T06:20:41.327Z,11.82
2022-12-17T06:23:29.541Z,13.65
2022-12-17T06:26:16.229Z,8.32
2022-12-17T06:29:02.565Z,10.38
2022-12-17T06:31:47.845Z,9.77
2022-12-17T06:34:33.185Z,10.43
2022-12-17T06:37:18.611Z,12.38
2022-12-17T06:40:04.329Z,8.70
2022-12-17T06:42:50.120Z,7.13
2022-12-17T06:45:35.480Z,9.18
2022-12-17T06:48:22.930Z,10.30
2022-12-17T06:51:08.953Z,8.45
2022-12-17T06:53:54.246Z,12.70
2022-12-17T06:56:39.630Z,7.68
2022-12-17T06:59:24.753Z,9.70
2022-12-17T07:02:10.083Z,9.07
2022-12-17T07:04:55.569Z,9.82
2022-12-17T07:07:40.921Z,11.15
2022-12-17T07:10:26.599Z,11.77
2022-12-17T07:13:11.941Z,7.18
2022-12-17T07:15:57.749Z,9.05
2022-12-17T07:18:43.078Z,8.02
2022-12-17T07:21:28.413Z,9.20
2022-12-17T07:24:13.698Z,7.07
2022-12-17T07:26:58.921Z,8.40
2022-12-17T07:29:44.228Z,10.77
2022-12-17T07:32:29.604Z,5.80
2022-12-17T07:35:14.841Z,9.80
2022-12-17T07:38:00.124Z,11.60
2022-12-17T07:40:45.494Z,12.68
2022-12-17T07:43:32.693Z,8.05
2022-12-17T07:46:18.589Z,12.48
2022-12-17T07:49:03.887Z,9.77
2022-12-17T07:51:49.689Z,7.28
2022-12-17T07:54:35.383Z,7.95
2022-12-17T07:57:21.128Z,8.85
2022-12-17T08:00:06.461Z,9.13
2022-12-17T08:02:52.285Z,9.77
2022-12-17T08:05:37.749Z,8.80
2022-12-17T08:08:28.109Z,7.55
2022-12-17T08:11:13.944Z,7.67
2022-12-17T08:13:59.738Z,7.10
2022-12-17T08:16:45.576Z,6.85
2022-12-17T08:19:31.382Z,7.97
2022-12-17T08:22:16.702Z,7.45
2022-12-17T08:25:02.123Z,9.30
2022-12-17T08:27:47.429Z,9.48
2022-12-17T08:30:32.943Z,8.25
2022-12-17T08:33:25.485Z,6.78
2022-12-17T08:36:15.889Z,9.38
2022-12-17T08:39:02.168Z,10.13
2022-12-17T08:41:54.017Z,8.60
2022-12-17T08:44:40.464Z,9.50
2022-12-17T08:47:25.825Z,8.10
2022-12-17T08:50:11.083Z,12.02
2022-12-17T08:52:56.869Z,13.57
2022-12-17T08:55:42.268Z,13.45
2022-12-17T08:58:27.737Z,12.90
2022-12-17T09:01:16.597Z,13.13
2022-12-17T09:04:03.505Z,14.70
2022-12-17T09:06:49.431Z,14.40
2022-12-17T09:09:34.753Z,13.95
2022-12-17T09:12:20.077Z,15.43
2022-12-17T09:15:05.373Z,15.50
2022-12-17T09:17:50.722Z,15.32
2022-12-17T09:20:36.416Z,14.77
2022-12-17T09:23:22.317Z,14.55
2022-12-17T09:26:14.243Z,14.40
2022-12-17T09:29:02.157Z,13.43
2022-12-17T09:31:50.286Z,14.13
2022-12-17T09:34:36.496Z,15.10
2022-12-17T09:37:22.627Z,17.92
2022-12-17T09:40:08.289Z,18.65
2022-12-17T09:43:25.408Z,14.90
2022-12-17T09:46:54.537Z,15.93
2022-12-17T09:49:45.469Z,15.80
2022-12-17T09:52:45.619Z,17.10
2022-12-17T09:55:44.524Z,16.35
2022-12-17T09:58:48.704Z,19.70
2022-12-17T10:01:54.951Z,15.93
2022-12-17T10:04:59.112Z,15.38
2022-12-17T10:07:52.351Z,19.33
2022-12-17T10:10:48.525Z,18.85
2022-12-17T10:13:38.502Z,17.42
2022-12-17T10:16:48.119Z,19.92
2022-12-17T10:19:55.449Z,20.48
2022-12-17T10:22:41.625Z,19.52
2022-12-17T10:25:41.071Z,20.73
2022-12-17T10:28:39.981Z,16.77
2022-12-17T10:31:35.076Z,16.95
2022-12-17T10:34:20.967Z,19.20
2022-12-17T10:37:09.959Z,18.10
2022-12-17T10:39:56.223Z,23.83
2022-12-17T10:42:57.697Z,20.55
2022-12-17T10:45:45.233Z,23.40
2022-12-17T10:48:43.891Z,19.58
2022-12-17T10:51:49.471Z,19.38
2022-12-17T10:54:52.510Z,20.38
2022-12-17T10:57:55.608Z,23.23
2022-12-17T11:00:52.759Z,22.98
2022-12-17T11:03:47.218Z,23.30
2022-12-17T11:06:42.668Z,21.58
2022-12-17T11:10:12.543Z,30.02
2022-12-17T11:13:14.573Z,20.70
2022-12-17T11:16:09.656Z,22.52
2022-12-17T11:18:58.040Z,28.10
2022-12-17T11:22:14.733Z,26.15
2022-12-17T11:25:07.880Z,29.58
2022-12-17T11:28:25.856Z,30.52
2022-12-17T11:31:31.522Z,25.80
2022-12-17T11:35:08.834Z,28.27
2022-12-17T11:38:42.721Z,26.65
2022-12-17T11:42:17.876Z,29.45
2022-12-17T11:45:38.407Z,31.98
2022-12-17T11:48:49.315Z,35.80
2022-12-17T11:51:44.251Z,29.70
2022-12-17T11:54:43.772Z,29.02
2022-12-17T11:57:36.152Z,39.38
2022-12-17T12:00:42.361Z,40.78
2022-12-17T12:04:01.051Z,41.72
2022-12-17T12:06:55.301Z,36.45
2022-12-17T12:09:51.843Z,41.05
2022-12-17T12:12:56.501Z,43.53
2022-12-17T12:16:07.388Z,38.38
2022-12-17T12:19:08.096Z,29.42
2022-12-17T12:22:03.648Z,38.58
2022-12-17T12:25:14.331Z,46.85
2022-12-17T12:28:05.278Z,44.92
2022-12-17T12:31:21.746Z,43.72
2022-12-17T12:34:19.069Z,48.97
2022-12-17T12:37:07.493Z,47.88
2022-12-17T12:40:20.359Z,46.00
2022-12-17T12:43:36.269Z,44.30
2022-12-17T12:46:41.382Z,43.17
2022-12-17T12:49:44.117Z,34.03
2022-12-17T12:52:37.321Z,34.10
2022-12-17T12:55:23.548Z,29.88
2022-12-17T12:58:18.186Z,32.03
2022-12-17T13:01:06.247Z,30.92
2022-12-17T13:04:08.761Z,31.95
2022-12-17T13:06:55.962Z,30.25
2022-12-17T13:09:34.167Z,32.65
2022-12-17T13:12:05.141Z,32.28
2022-12-17T13:14:48.187Z,23.08
2022-12-17T13:17:14.966Z,27.20
2022-12-17T13:19:58.076Z,31.52
2022-12-17T13:22:30.110Z,36.05
2022-12-17T13:25:17.298Z,35.08
2022-12-17T13:27:45.301Z,35.35
2022-12-17T13:30:18.847Z,37.67
2022-12-17T13:33:39.840Z,36.13
2022-12-17T13:36:30.322Z,25.25
2022-12-17T13:39:23.876Z,27.00
2022-12-17T13:41:56.990Z,26.55
2022-12-17T13:44:44.822Z,30.40
2022-12-17T13:47:23.070Z,32.25
2022-12-17T13:50:31.674Z,30.02
2022-12-17T13:52:43.434Z,30.02
2022-12-17T13:55:29.184Z,26.17
2022-12-17T13:57:56.637Z,26.00
2022-12-17T14:00:28.687Z,30.48
2022-12-17T14:02:55.725Z,26.75
2022-12-17T14:05:37.856Z,29.45
2022-12-17T14:08:05.967Z,25.48
2022-12-17T14:10:33.471Z,27.83
2022-12-17T14:13:13.654Z,31.52
2022-12-17T14:15:48.199Z,21.50
2022-12-17T14:18:20.653Z,21.08
2022-12-17T14:20:50.441Z,23.30
2022-12-17T14:23:31.302Z,23.98
2022-12-17T14:25:59.022Z,25.83
2022-12-17T14:28:34.881Z,24.80
2022-12-17T14:31:26.775Z,27.77
2022-12-17T14:34:07.262Z,24.60
2022-12-17T14:36:37.658Z,28.00
2022-12-17T14:39:29.983Z,24.83
2022-12-17T14:42:26.688Z,24.73
2022-12-17T14:45:02.803Z,24.92
2022-12-17T14:47:33.303Z,28.05
2022-12-17T14:50:13.542Z,28.27
2022-12-17T14:52:50.091Z,27.45
2022-12-17T14:55:32.012Z,24.45
2022-12-17T14:58:14.036Z,25.52
2022-12-17T15:00:46.324Z,22.65
2022-12-17T15:03:29.113Z,25.17
2022-12-17T15:06:06.927Z,24.15
2022-12-17T15:08:41.455Z,26.20
2022-12-17T15:11:16.990Z,24.42
2022-12-17T15:13:44.159Z,25.02
2022-12-17T15:16:11.943Z,27.15
2022-12-17T15:18:39.315Z,28.30
2022-12-17T15:21:06.760Z,29.08
2022-12-17T15:23:33.704Z,31.65
2022-12-17T15:26:00.692Z,27.75
2022-12-17T15:28:27.725Z,34.20
2022-12-17T15:30:54.768Z,29.88
2022-12-17T15:33:22.017Z,34.40
2022-12-17T15:35:49.000Z,31.88
2022-12-17T15:38:15.990Z,28.20
2022-12-17T15:40:42.971Z,28.60
2022-12-17T15:43:11.952Z,25.00
2022-12-17T15:45:50.995Z,26.40
2022-12-17T15:48:23.348Z,24.30
2022-12-17T15:50:50.542Z,22.10
2022-12-17T15:53:17.536Z,25.20
2022-12-17T15:55:44.547Z,24.35
2022-12-17T15:58:11.684Z,26.63
2022-12-17T16:00:38.882Z,24.70
2022-12-17T16:03:06.419Z,21.40
2022-12-17T16:05:33.479Z,26.60
2022-12-17T16:08:02.336Z,28.23
2022-12-17T16:10:30.250Z,25.52
2022-12-17T16:12:57.786Z,25.33
2022-12-17T16:15:24.950Z,26.75
2022-12-17T16:17:51.919Z,28.52
2022-12-17T16:20:20.058Z,25.00
2022-12-17T16:22:47.079Z,27.50
2022-12-17T16:25:14.235Z,26.45
2022-12-17T16:27:41.264Z,26.02
2022-12-17T16:30:11.075Z,26.30
2022-12-17T16:32:38.754Z,29.23
2022-12-17T16:35:06.614Z,19.83
2022-12-17T16:37:33.601Z,26.25
2022-12-17T16:40:00.864Z,29.30
2022-12-17T16:42:28.308Z,23.65
2022-12-17T16:44:55.334Z,20.88
2022-12-17T16:47:22.344Z,26.25
2022-12-17T16:49:50.871Z,26.83
2022-12-17T16:52:17.943Z,26.67
2022-12-17T16:54:44.898Z,29.17
2022-12-17T16:57:11.854Z,27.20
2022-12-17T16:59:38.830Z,25.67
2022-12-17T17:02:11.766Z,24.80
2022-12-17T17:04:39.188Z,26.63
2022-12-17T17:07:06.342Z,19.80
2022-12-17T17:09:33.451Z,27.02
2022-12-17T17:12:00.377Z,22.90
2022-12-17T17:14:27.470Z,28.20
2022-12-17T17:16:54.452Z,22.17
2022-12-17T17:19:21.405Z,30.02
2022-12-17T17:21:54.043Z,25.40
2022-12-17T17:24:25.335Z,23.70
2022-12-17T17:26:53.738Z,27.05
2022-12-17T17:29:22.092Z,22.52
2022-12-17T17:34:38.326Z,22.80
2022-12-17T17:37:05.235Z,21.40
2022-12-17T17:39:34.033Z,29.50
2022-12-17T17:42:01.775Z,25.65
2022-12-17T17:44:28.696Z,25.50
2022-12-17T17:46:55.656Z,24.50
2022-12-17T17:49:22.788Z,26.20
2022-12-17T17:54:39.303Z,20.48
2022-12-17T17:57:06.361Z,22.58
2022-12-17T17:59:34.421Z,22.90
2022-12-17T18:02:02.725Z,20.58
2022-12-17T18:04:30.491Z,20.40
2022-12-17T18:09:44.324Z,20.58
2022-12-17T18:12:30.116Z,21.90
2022-12-17T18:15:13.679Z,20.75
2022-12-17T18:17:41.848Z,20.80
2022-12-17T18:20:10.075Z,22.70
2022-12-17T18:22:37.816Z,25.55
2022-12-17T18:25:05.715Z,19.45
2022-12-17T18:27:32.688Z,26.95
2022-12-17T18:29:59.656Z,24.88
2022-12-17T18:32:26.599Z,22.70
2022-12-17T18:34:53.633Z,23.85
2022-12-17T18:37:20.716Z,22.35
2022-12-17T18:39:48.946Z,22.50
2022-12-17T18:42:34.456Z,26.17
2022-12-17T18:45:01.906Z,21.85
2022-12-17T18:47:29.009Z,22.63
2022-12-17T18:49:55.994Z,21.63
2022-12-17T18:52:24.625Z,25.98
2022-12-17T18:54:51.648Z,21.25
2022-12-17T18:57:18.623Z,24.85
2022-12-17T18:59:45.694Z,24.10
2022-12-17T19:02:13.964Z,23.10
2022-12-17T19:04:41.773Z,22.83
2022-12-17T19:07:09.388Z,21.50
2022-12-17T19:09:38.307Z,23.83
2022-12-17T19:12:08.324Z,22.45
2022-12-17T19:14:36.303Z,27.48
2022-12-17T19:17:04.999Z,22.98
2022-12-17T19:19:33.143Z,22.17
2022-12-17T19:22:00.321Z,21.27
2022-12-17T19:24:27.646Z,25.13
2022-12-17T19:26:54.703Z,22.40
2022-12-17T19:29:22.675Z,21.10
2022-12-17T19:31:49.837Z,24.20
2022-12-17T19:34:18.958Z,23.23
2022-12-17T19:36:47.171Z,20.70
2022-12-17T19:39:18.309Z,22.45
2022-12-17T19:44:15.154Z,22.67
2022-12-17T19:46:43.440Z,19.10
2022-12-17T19:49:13.472Z,22.15
2022-12-17T19:51:42.961Z,19.35
2022-12-17T19:54:15.019Z,22.08
2022-12-17T19:56:44.715Z,22.45
2022-12-17T19:59:13.706Z,19.90
2022-12-17T20:01:46.442Z,18.67
2022-12-17T20:04:16.165Z,18.13
2022-12-17T20:06:44.646Z,21.75
2022-12-17T20:09:12.332Z,23.17
2022-12-17T20:11:39.579Z,22.30
2022-12-17T20:14:22.444Z,24.20
2022-12-17T20:16:58.492Z,24.45
2022-12-17T20:19:33.437Z,19.23
2022-12-17T20:22:02.555Z,20.65
2022-12-17T20:24:32.015Z,25.08
2022-12-17T20:27:00.730Z,19.67
2022-12-17T20:29:29.407Z,25.95
2022-12-17T20:31:56.539Z,23.83
2022-12-17T20:34:24.516Z,23.85
2022-12-17T20:36:53.456Z,22.90
2022-12-17T20:39:26.668Z,23.48
2022-12-17T20:41:56.456Z,22.95
2022-12-17T20:44:23.475Z,26.77
2022-12-17T20:46:50.399Z,27.98
2022-12-17T20:49:17.318Z,22.45
2022-12-17T20:51:44.302Z,26.33
2022-12-17T20:54:11.588Z,23.30
2022-12-17T20:56:39.859Z,24.35
2022-12-17T20:59:13.027Z,29.35
2022-12-17T21:01:40.616Z,21.73
2022-12-17T21:04:08.224Z,23.85
2022-12-17T21:06:47.337Z,23.20
2022-12-17T21:09:18.007Z,24.33
2022-12-17T21:11:44.982Z,21.40
2022-12-17T21:14:16.637Z,25.25
2022-12-17T21:16:44.441Z,23.67
2022-12-17T21:19:17.688Z,26.65
2022-12-17T21:21:45.161Z,20.58
2022-12-17T21:24:12.189Z,26.58
2022-12-17T21:26:42.241Z,22.88
2022-12-17T21:29:09.920Z,22.13
2022-12-17T21:31:44.369Z,22.00
2022-12-17T21:34:16.172Z,21.58
2022-12-17T21:36:44.040Z,22.40
2022-12-17T21:39:13.574Z,25.50
2022-12-17T21:41:45.095Z,23.20
2022-12-17T21:44:13.884Z,20.95
2022-12-17T21:46:42.951Z,25.47
2022-12-17T21:49:10.605Z,19.08
2022-12-17T21:51:38.014Z,22.90
2022-12-17T21:54:08.406Z,21.35
2022-12-17T21:59:03.551Z,18.70
2022-12-17T22:01:33.625Z,18.50
2022-12-17T22:04:04.122Z,23.20
2022-12-17T22:06:42.485Z,22.73
2022-12-17T22:09:20.967Z,18.17
2022-12-17T22:12:22.202Z,22.02
2022-12-17T22:14:49.279Z,20.17
2022-12-17T22:17:16.239Z,23.48
2022-12-17T22:19:43.154Z,24.00
2022-12-17T22:22:10.245Z,21.20
2022-12-17T22:24:37.355Z,20.73
2022-12-17T22:27:05.140Z,20.98
2022-12-17T22:29:55.653Z,23.05
2022-12-17T22:32:41.562Z,22.55
2022-12-17T22:36:25.384Z,20.85
2022-12-17T22:42:20.635Z,20.92
2022-12-17T22:44:37.653Z,22.90
2022-12-17T22:44:43.848Z,16.60
2022-12-17T22:46:17.808Z,21.67
2022-12-17T22:48:45.253Z,24.50
2022-12-17T22:51:15.452Z,20.33
2022-12-17T22:53:47.197Z,16.88
2022-12-17T22:56:26.082Z,21.98
2022-12-17T22:59:02.037Z,21.58
2022-12-17T23:01:29.086Z,23.42
2022-12-17T23:03:58.613Z,24.13
2022-12-17T23:06:26.973Z,23.42
2022-12-17T23:08:54.117Z,20.30
2022-12-17T23:11:25.064Z,22.23
2022-12-17T23:13:53.694Z,28.75
2022-12-17T23:16:20.993Z,25.85
2022-12-17T23:18:50.602Z,21.67
2022-12-17T23:21:24.972Z,24.55
2022-12-17T23:23:53.905Z,22.90
2022-12-17T23:26:33.621Z,22.90
2022-12-17T23:29:07.086Z,21.95
2022-12-17T23:31:38.429Z,21.27
2022-12-17T23:34:05.818Z,23.73
2022-12-17T23:36:33.478Z,25.88
2022-12-17T23:39:00.813Z,20.77
2022-12-17T23:41:30.337Z,19.15
2022-12-17T23:43:58.411Z,24.63
2022-12-17T23:46:28.398Z,22.48
2022-12-17T23:48:55.850Z,15.03
2022-12-17T23:51:25.941Z,20.30
2022-12-17T23:53:53.061Z,14.73
2022-12-17T23:56:26.452Z,19.80
2022-12-17T23:59:00.305Z,17.98
